createdAt,value
2019-02-26T00:00:32.362Z,16.97
2019-02-26T00:03:04.719Z,19.42
2019-02-26T00:05:35.285Z,18.42
2019-02-26T00:08:05.743Z,18.87
2019-02-26T00:10:38.835Z,16.95
2019-02-26T00:13:09.364Z,18.27
2019-02-26T00:15:40.535Z,14.40
2019-02-26T00:18:13.959Z,21.65
2019-02-26T00:20:45.155Z,11.60
2019-02-26T00:23:15.627Z,17.87
2019-02-26T00:25:46.042Z,18.90
2019-02-26T00:28:17.672Z,20.62
2019-02-26T00:30:48.616Z,12.45
2019-02-26T00:33:22.307Z,21.93
2019-02-26T00:35:51.262Z,14.43
2019-02-26T00:38:21.725Z,19.62
2019-02-26T00:40:52.083Z,20.60
2019-02-26T00:43:25.317Z,20.43
2019-02-26T00:45:56.008Z,15.78
2019-02-26T00:48:26.968Z,21.93
2019-02-26T00:50:59.446Z,22.93
2019-02-26T00:53:30.641Z,13.03
2019-02-26T00:56:03.257Z,17.80
2019-02-26T00:58:37.069Z,17.57
2019-02-26T01:01:08.239Z,19.12
2019-02-26T01:04:09.291Z,19.95
2019-02-26T01:06:46.901Z,27.62
2019-02-26T01:09:17.614Z,22.05
2019-02-26T01:11:49.747Z,19.02
2019-02-26T01:14:20.778Z,21.42
2019-02-26T01:16:52.420Z,22.02
2019-02-26T01:19:22.875Z,22.00
2019-02-26T01:21:53.373Z,21.12
2019-02-26T01:24:25.846Z,17.90
2019-02-26T01:26:56.037Z,24.15
2019-02-26T01:29:27.797Z,20.10
2019-02-26T01:31:58.478Z,26.75
2019-02-26T01:34:28.936Z,15.72
2019-02-26T01:37:00.923Z,23.07
2019-02-26T01:39:31.711Z,24.27
2019-02-26T01:42:02.132Z,17.90
2019-02-26T01:44:35.028Z,23.50
2019-02-26T01:47:05.695Z,17.07
2019-02-26T01:49:36.168Z,20.57
2019-02-26T01:52:08.264Z,24.60
2019-02-26T01:54:39.707Z,29.65
2019-02-26T01:57:10.132Z,29.60
2019-02-26T01:59:40.664Z,27.13
2019-02-26T02:02:14.689Z,23.70
2019-02-26T02:04:43.539Z,31.87
2019-02-26T02:07:14.036Z,28.52
2019-02-26T02:09:46.669Z,30.88
2019-02-26T02:12:16.604Z,24.23
2019-02-26T02:14:47.063Z,27.42
2019-02-26T02:17:18.606Z,35.05
2019-02-26T02:19:49.058Z,30.77
2019-02-26T02:22:21.245Z,30.32
2019-02-26T02:24:54.003Z,29.18
2019-02-26T02:27:26.833Z,35.95
2019-02-26T02:29:57.773Z,22.07
2019-02-26T02:32:29.826Z,21.12
2019-02-26T02:35:03.813Z,33.70
2019-02-26T02:37:32.780Z,33.33
2019-02-26T02:40:03.318Z,37.17
2019-02-26T02:42:35.018Z,40.63
2019-02-26T02:45:11.336Z,37.53
2019-02-26T02:47:40.794Z,26.02
2019-02-26T02:50:18.357Z,35.95
2019-02-26T02:52:50.886Z,28.62
2019-02-26T02:55:21.238Z,27.17
2019-02-26T02:57:53.102Z,21.33
2019-02-26T03:00:26.536Z,28.80
2019-02-26T03:02:58.299Z,30.30
2019-02-26T03:05:31.292Z,44.20
2019-02-26T03:08:00.530Z,36.98
2019-02-26T03:10:34.107Z,42.73
2019-02-26T03:13:03.341Z,34.95
2019-02-26T03:15:35.874Z,47.08
2019-02-26T03:18:08.578Z,27.22
2019-02-26T03:20:40.220Z,54.50
2019-02-26T03:23:15.087Z,49.67
2019-02-26T03:25:44.533Z,38.73
2019-02-26T03:28:14.495Z,31.20
2019-02-26T03:30:44.984Z,38.88
2019-02-26T03:33:15.406Z,45.43
2019-02-26T03:35:45.860Z,51.45
2019-02-26T03:38:18.104Z,54.08
2019-02-26T03:40:49.308Z,57.58
2019-02-26T03:43:20.682Z,60.05
2019-02-26T03:45:51.161Z,56.40
2019-02-26T03:48:21.664Z,62.78
2019-02-26T03:50:52.138Z,56.70
2019-02-26T03:53:25.504Z,53.85
2019-02-26T03:55:59.575Z,51.50
2019-02-26T03:58:26.937Z,49.38
2019-02-26T04:01:01.742Z,55.88
2019-02-26T04:03:32.140Z,59.40
2019-02-26T04:06:03.849Z,58.48
2019-02-26T04:08:34.859Z,61.08
2019-02-26T04:11:05.249Z,53.55
2019-02-26T04:13:35.682Z,46.63
2019-02-26T04:16:06.164Z,67.25
2019-02-26T04:18:36.868Z,63.95
2019-02-26T04:21:09.474Z,59.23
2019-02-26T04:23:41.564Z,56.48
2019-02-26T04:26:18.522Z,57.13
2019-02-26T04:28:53.446Z,56.40
2019-02-26T04:31:33.136Z,59.55
2019-02-26T04:34:08.492Z,56.80
2019-02-26T04:36:47.149Z,57.55
2019-02-26T04:39:44.317Z,62.35
2019-02-26T04:42:18.169Z,62.08
2019-02-26T04:45:09.659Z,58.40
2019-02-26T04:47:45.930Z,70.97
2019-02-26T04:50:15.679Z,63.33
2019-02-26T04:52:46.151Z,70.50
2019-02-26T04:55:16.575Z,63.17
2019-02-26T04:57:49.095Z,65.80
2019-02-26T05:00:19.176Z,66.40
2019-02-26T05:02:49.708Z,68.25
2019-02-26T05:05:22.453Z,65.70
2019-02-26T05:07:52.360Z,70.20
2019-02-26T05:10:24.343Z,61.98
2019-02-26T05:12:57.237Z,63.48
2019-02-26T05:15:30.032Z,58.70
2019-02-26T05:17:59.381Z,64.47
2019-02-26T05:20:31.444Z,64.12
2019-02-26T05:23:03.094Z,59.38
2019-02-26T05:25:35.130Z,68.25
2019-02-26T05:28:09.508Z,58.20
2019-02-26T05:30:40.443Z,53.92
2019-02-26T05:33:10.746Z,44.03
2019-02-26T05:35:43.792Z,49.42
2019-02-26T05:38:13.349Z,67.40
2019-02-26T05:40:45.203Z,69.95
2019-02-26T05:43:15.931Z,64.20
2019-02-26T05:45:48.443Z,63.55
2019-02-26T05:48:21.255Z,68.52
2019-02-26T05:50:52.506Z,68.22
2019-02-26T05:53:23.311Z,64.22
2019-02-26T05:55:55.974Z,61.98
2019-02-26T05:58:25.843Z,69.00
2019-02-26T06:00:56.347Z,69.30
2019-02-26T06:03:27.607Z,68.65
2019-02-26T06:06:00.333Z,64.50
2019-02-26T06:08:33.664Z,60.70
2019-02-26T06:11:02.486Z,64.85
2019-02-26T06:13:35.487Z,62.85
2019-02-26T06:16:07.449Z,66.60
2019-02-26T06:18:41.181Z,61.18
2019-02-26T06:21:09.542Z,66.00
2019-02-26T06:23:40.066Z,62.83
2019-02-26T06:26:14.091Z,61.88
2019-02-26T06:28:43.552Z,55.65
2019-02-26T06:31:17.404Z,58.85
2019-02-26T06:33:48.076Z,61.23
2019-02-26T06:36:21.040Z,53.58
2019-02-26T06:38:53.734Z,60.92
2019-02-26T06:41:22.956Z,61.70
2019-02-26T06:43:55.098Z,53.02
2019-02-26T06:46:27.121Z,62.67
2019-02-26T06:48:57.917Z,60.35
2019-02-26T06:51:30.628Z,58.85
2019-02-26T06:54:01.165Z,67.22
2019-02-26T06:56:34.464Z,63.40
2019-02-26T06:59:09.916Z,61.10
2019-02-26T07:01:42.024Z,54.27
2019-02-26T07:04:14.284Z,63.58
2019-02-26T07:06:44.724Z,56.83
2019-02-26T07:09:16.386Z,55.58
2019-02-26T07:11:47.403Z,69.97
2019-02-26T07:14:17.808Z,63.65
2019-02-26T07:16:48.312Z,61.50
2019-02-26T07:19:18.780Z,49.90
2019-02-26T07:21:51.302Z,56.88
2019-02-26T07:24:23.032Z,62.83
2019-02-26T07:26:53.499Z,59.83
2019-02-26T07:29:23.979Z,65.20
2019-02-26T07:31:56.558Z,57.15
2019-02-26T07:34:27.359Z,54.53
2019-02-26T07:36:57.857Z,54.00
2019-02-26T07:39:29.404Z,54.25
2019-02-26T07:41:59.898Z,61.90
2019-02-26T07:44:30.443Z,62.00
2019-02-26T07:47:03.685Z,67.25
2019-02-26T07:49:33.044Z,67.90
2019-02-26T07:52:05.962Z,68.25
2019-02-26T07:54:37.758Z,55.48
2019-02-26T07:57:07.878Z,53.52
2019-02-26T07:59:39.886Z,55.40
2019-02-26T08:02:11.371Z,56.75
2019-02-26T08:04:43.618Z,56.35
2019-02-26T08:07:14.215Z,57.13
2019-02-26T08:09:45.668Z,53.73
2019-02-26T08:12:16.161Z,56.83
2019-02-26T08:14:47.751Z,56.02
2019-02-26T08:17:18.683Z,54.20
2019-02-26T08:19:49.405Z,40.52
2019-02-26T08:22:19.971Z,58.92
2019-02-26T08:24:52.701Z,53.58
2019-02-26T08:27:22.651Z,53.35
2019-02-26T08:29:54.722Z,51.98
2019-02-26T08:32:26.214Z,49.55
2019-02-26T08:34:59.968Z,49.48
2019-02-26T08:37:30.789Z,46.10
2019-02-26T08:40:01.329Z,55.75
2019-02-26T08:42:31.818Z,53.23
2019-02-26T08:45:02.287Z,58.42
2019-02-26T08:47:33.386Z,58.38
2019-02-26T08:50:07.224Z,60.78
2019-02-26T08:52:37.806Z,39.15
2019-02-26T08:55:11.170Z,53.35
2019-02-26T09:00:25.573Z,46.88
2019-02-26T09:02:56.794Z,43.48
2019-02-26T09:05:29.240Z,37.88
2019-02-26T09:07:59.604Z,43.92
2019-02-26T09:10:30.039Z,50.83
2019-02-26T09:13:00.536Z,55.12
2019-02-26T09:15:33.217Z,47.55
2019-02-26T09:18:03.214Z,38.73
2019-02-26T09:20:33.655Z,50.88
2019-02-26T09:23:04.083Z,54.80
2019-02-26T09:25:34.531Z,49.80
2019-02-26T09:28:04.952Z,45.35
2019-02-26T09:30:36.469Z,49.33
2019-02-26T09:33:09.079Z,49.25
2019-02-26T09:35:39.843Z,47.75
2019-02-26T09:38:12.219Z,47.30
2019-02-26T09:40:42.516Z,45.45
2019-02-26T09:43:14.906Z,41.40
2019-02-26T09:45:45.861Z,36.80
2019-02-26T09:48:19.276Z,49.45
2019-02-26T09:50:49.397Z,48.73
2019-02-26T09:53:19.743Z,42.98
2019-02-26T09:55:50.207Z,32.55
2019-02-26T09:58:22.904Z,48.08
2019-02-26T10:00:54.193Z,38.63
2019-02-26T10:03:24.635Z,47.23
2019-02-26T10:05:56.060Z,42.10
2019-02-26T10:08:29.888Z,29.32
2019-02-26T10:11:00.221Z,52.67
2019-02-26T10:13:31.633Z,41.75
2019-02-26T10:16:04.497Z,41.18
2019-02-26T10:18:35.251Z,44.85
2019-02-26T10:21:08.523Z,44.03
2019-02-26T10:23:37.835Z,42.13
2019-02-26T10:26:10.569Z,47.05
2019-02-26T10:28:42.652Z,55.92
2019-02-26T10:31:12.619Z,27.98
2019-02-26T10:33:45.773Z,39.38
2019-02-26T10:36:16.641Z,42.43
2019-02-26T10:38:47.636Z,42.83
2019-02-26T10:41:18.185Z,49.35
2019-02-26T10:43:48.601Z,32.65
2019-02-26T10:46:19.073Z,46.00
2019-02-26T10:48:50.363Z,40.78
2019-02-26T10:51:26.035Z,42.20
2019-02-26T10:53:53.833Z,46.08
2019-02-26T10:56:28.000Z,52.23
2019-02-26T10:59:01.978Z,51.45
2019-02-26T11:01:30.787Z,50.40
2019-02-26T11:04:00.762Z,31.97
2019-02-26T11:06:33.719Z,43.10
2019-02-26T11:09:04.394Z,29.32
2019-02-26T11:11:38.059Z,39.98
2019-02-26T11:14:10.634Z,41.88
2019-02-26T11:16:40.739Z,46.50
2019-02-26T11:19:12.355Z,40.45
2019-02-26T11:21:42.985Z,41.60
2019-02-26T11:24:13.416Z,49.73
2019-02-26T11:26:44.053Z,41.85
2019-02-26T11:29:14.492Z,36.58
2019-02-26T11:31:47.308Z,42.60
2019-02-26T11:34:17.193Z,47.35
2019-02-26T11:36:47.722Z,43.73
2019-02-26T11:39:18.225Z,38.48
2019-02-26T11:41:53.055Z,45.08
2019-02-26T11:44:23.399Z,36.93
2019-02-26T11:46:54.262Z,45.03
2019-02-26T11:49:25.386Z,38.42
2019-02-26T11:51:55.952Z,44.08
2019-02-26T11:54:26.384Z,42.08
2019-02-26T11:56:57.253Z,45.78
2019-02-26T11:59:27.685Z,32.35
2019-02-26T12:01:59.139Z,42.55
2019-02-26T12:04:30.283Z,47.93
2019-02-26T12:07:03.936Z,39.98
2019-02-26T12:09:35.679Z,52.27
2019-02-26T12:12:08.545Z,45.10
2019-02-26T12:14:42.693Z,39.15
2019-02-26T12:17:10.295Z,50.25
2019-02-26T12:19:41.865Z,44.80
2019-02-26T12:22:12.335Z,45.78
2019-02-26T12:24:42.760Z,46.95
2019-02-26T12:27:17.981Z,49.23
2019-02-26T12:29:47.836Z,42.17
2019-02-26T12:32:19.504Z,33.02
2019-02-26T12:34:51.452Z,38.08
2019-02-26T12:37:22.016Z,35.10
2019-02-26T12:39:54.894Z,37.83
2019-02-26T12:42:25.610Z,35.08
2019-02-26T12:44:57.430Z,36.35
2019-02-26T12:47:28.104Z,35.28
2019-02-26T12:50:01.144Z,34.43
2019-02-26T12:52:30.866Z,40.50
2019-02-26T12:55:04.148Z,31.00
2019-02-26T12:57:33.548Z,38.70
2019-02-26T13:00:08.043Z,30.55
2019-02-26T13:02:39.987Z,36.45
2019-02-26T13:05:13.311Z,35.17
2019-02-26T13:07:43.968Z,32.17
2019-02-26T13:10:22.379Z,27.30
2019-02-26T13:12:54.989Z,29.05
2019-02-26T13:15:25.078Z,30.45
2019-02-26T13:17:55.547Z,30.08
2019-02-26T13:20:27.195Z,30.40
2019-02-26T13:23:16.228Z,28.30
2019-02-26T13:25:29.866Z,27.10
2019-02-26T13:28:00.333Z,24.45
2019-02-26T13:30:30.764Z,23.70
2019-02-26T13:33:05.169Z,23.35
2019-02-26T13:35:33.782Z,22.10
2019-02-26T13:38:05.349Z,22.93
2019-02-26T13:40:38.706Z,23.42
2019-02-26T13:43:08.386Z,17.48
2019-02-26T13:45:39.942Z,19.87
2019-02-26T13:48:10.733Z,21.35
2019-02-26T13:50:41.366Z,23.73
2019-02-26T13:53:11.917Z,20.75
2019-02-26T13:55:42.344Z,27.27
2019-02-26T13:58:13.265Z,23.50
2019-02-26T14:00:43.687Z,24.43
2019-02-26T14:03:14.232Z,22.45
2019-02-26T14:05:44.732Z,24.45
2019-02-26T14:08:15.268Z,26.12
2019-02-26T14:10:45.689Z,27.52
2019-02-26T14:13:16.246Z,29.45
2019-02-26T14:15:46.809Z,24.43
2019-02-26T14:18:17.272Z,23.67
2019-02-26T14:20:47.710Z,25.08
2019-02-26T14:23:18.176Z,24.65
2019-02-26T14:25:48.791Z,25.57
2019-02-26T14:28:19.249Z,21.37
2019-02-26T14:30:49.680Z,28.15
2019-02-26T14:33:20.150Z,25.40
2019-02-26T14:35:51.980Z,24.92
2019-02-26T14:38:22.527Z,28.52
2019-02-26T14:40:53.028Z,27.05
2019-02-26T14:43:23.466Z,26.50
2019-02-26T14:45:53.904Z,24.90
2019-02-26T14:48:24.483Z,29.12
2019-02-26T14:50:54.977Z,25.97
2019-02-26T14:53:25.391Z,35.40
2019-02-26T14:55:55.893Z,24.72
2019-02-26T14:58:26.749Z,26.40
2019-02-26T15:00:58.267Z,31.57
2019-02-26T15:03:29.346Z,30.20
2019-02-26T15:05:59.773Z,32.78
2019-02-26T15:08:30.322Z,28.65
2019-02-26T15:11:00.750Z,30.62
2019-02-26T15:13:31.226Z,29.02
2019-02-26T15:16:01.676Z,32.00
2019-02-26T15:18:32.417Z,27.60
2019-02-26T15:21:02.840Z,31.73
2019-02-26T15:23:33.265Z,28.10
2019-02-26T15:26:03.627Z,33.05
2019-02-26T15:28:35.185Z,32.75
2019-02-26T15:31:05.609Z,38.80
2019-02-26T15:33:36.083Z,35.15
2019-02-26T15:36:06.520Z,29.55
2019-02-26T15:38:37.153Z,32.75
2019-02-26T15:41:07.759Z,31.65
2019-02-26T15:43:38.231Z,27.15
2019-02-26T15:46:08.658Z,38.28
2019-02-26T15:48:39.123Z,37.75
2019-02-26T15:51:14.292Z,41.30
2019-02-26T15:53:41.644Z,36.05
2019-02-26T15:56:12.269Z,40.67
2019-02-26T15:58:42.670Z,36.55
2019-02-26T16:01:18.908Z,37.38
2019-02-26T16:03:51.260Z,41.80
2019-02-26T16:06:21.683Z,44.18
2019-02-26T16:08:52.162Z,42.05
2019-02-26T16:11:22.647Z,46.90
2019-02-26T16:13:53.113Z,78.35
2019-02-26T16:16:23.607Z,63.23
2019-02-26T16:18:54.609Z,49.45
2019-02-26T16:21:25.653Z,45.95
2019-02-26T16:23:56.428Z,37.50
2019-02-26T16:26:26.851Z,41.85
2019-02-26T16:29:00.820Z,52.83
2019-02-26T16:31:30.026Z,43.55
2019-02-26T16:34:01.017Z,42.60
2019-02-26T16:36:32.249Z,43.35
2019-02-26T16:39:03.207Z,45.95
2019-02-26T16:41:38.052Z,30.27
2019-02-26T16:44:07.380Z,43.20
2019-02-26T16:46:42.712Z,35.10
2019-02-26T16:49:13.490Z,36.45
2019-02-26T16:51:44.234Z,40.43
2019-02-26T16:54:15.088Z,35.55
2019-02-26T16:56:45.587Z,48.33
2019-02-26T16:59:16.129Z,67.85
2019-02-26T17:01:46.626Z,68.70
2019-02-26T17:04:17.231Z,74.05
2019-02-26T17:06:47.730Z,147.53
2019-02-26T17:09:19.018Z,52.62
2019-02-26T17:11:50.481Z,86.45
2019-02-26T17:14:21.784Z,259.20
2019-02-26T17:16:52.300Z,69.07
2019-02-26T17:19:22.832Z,61.70
2019-02-26T17:21:53.698Z,86.50
2019-02-26T17:24:24.231Z,48.45
2019-02-26T17:26:54.668Z,43.92
2019-02-26T17:29:25.136Z,39.65
2019-02-26T17:31:55.630Z,33.00
2019-02-26T17:34:27.092Z,65.87
2019-02-26T17:36:57.650Z,79.40
2019-02-26T17:39:28.734Z,75.42
2019-02-26T17:41:59.260Z,43.73
2019-02-26T17:44:29.789Z,53.10
2019-02-26T17:47:00.145Z,49.40
2019-02-26T17:49:30.611Z,58.05
2019-02-26T17:52:01.279Z,46.23
2019-02-26T17:54:31.831Z,58.50
2019-02-26T17:57:02.255Z,59.85
2019-02-26T17:59:32.897Z,84.20
2019-02-26T18:02:03.320Z,70.95
2019-02-26T18:04:33.853Z,98.75
2019-02-26T18:07:04.207Z,89.37
2019-02-26T18:09:35.103Z,76.67
2019-02-26T18:12:05.626Z,77.85
2019-02-26T18:14:38.537Z,67.12
2019-02-26T18:17:08.219Z,78.40
2019-02-26T18:19:38.684Z,73.75
2019-02-26T18:22:09.101Z,85.50
2019-02-26T18:24:39.635Z,100.47
2019-02-26T18:27:10.085Z,90.67
2019-02-26T18:29:40.543Z,74.30
2019-02-26T18:32:11.248Z,72.60
2019-02-26T18:34:42.159Z,69.87
2019-02-26T18:37:12.775Z,72.42
2019-02-26T18:39:50.005Z,54.30
2019-02-26T18:42:30.073Z,65.67
2019-02-26T18:45:00.619Z,73.07
2019-02-26T18:47:32.639Z,65.80
2019-02-26T18:50:03.106Z,59.65
2019-02-26T18:52:33.597Z,62.20
2019-02-26T18:55:05.818Z,64.15
2019-02-26T18:57:36.533Z,71.40
2019-02-26T19:00:10.233Z,74.35
2019-02-26T19:02:42.530Z,69.97
2019-02-26T19:05:13.611Z,68.85
2019-02-26T19:07:44.172Z,69.22
2019-02-26T19:10:19.421Z,72.47
2019-02-26T19:12:48.612Z,71.53
2019-02-26T19:15:21.060Z,68.15
2019-02-26T19:17:53.604Z,68.85
2019-02-26T19:20:30.215Z,76.22
2019-02-26T19:23:02.088Z,78.55
2019-02-26T19:25:32.850Z,70.20
2019-02-26T19:28:03.364Z,74.82
2019-02-26T19:30:36.697Z,67.32
2019-02-26T19:33:06.357Z,75.40
2019-02-26T19:35:40.315Z,74.60
2019-02-26T19:38:08.996Z,71.20
2019-02-26T19:40:43.514Z,75.65
2019-02-26T19:43:13.926Z,75.15
2019-02-26T19:45:44.971Z,74.42
2019-02-26T19:48:15.858Z,75.37
2019-02-26T19:50:48.649Z,60.75
2019-02-26T19:53:18.384Z,71.42
2019-02-26T19:55:50.078Z,69.05
2019-02-26T19:58:20.580Z,67.47
2019-02-26T20:00:52.998Z,73.95
2019-02-26T20:03:23.327Z,68.87
2019-02-26T20:05:53.728Z,57.78
2019-02-26T20:08:24.303Z,66.50
2019-02-26T20:10:54.830Z,67.35
2019-02-26T20:13:25.418Z,59.73
2019-02-26T20:15:56.020Z,62.75
2019-02-26T20:18:26.738Z,63.90
2019-02-26T20:20:58.737Z,59.88
2019-02-26T20:23:29.373Z,66.55
2019-02-26T20:25:59.920Z,71.75
2019-02-26T20:28:30.354Z,67.32
2019-02-26T20:31:00.837Z,62.83
2019-02-26T20:33:31.347Z,66.50
2019-02-26T20:36:02.180Z,64.27
2019-02-26T20:38:35.208Z,59.73
2019-02-26T20:41:04.968Z,61.13
2019-02-26T20:43:36.927Z,60.45
2019-02-26T20:46:07.940Z,65.72
2019-02-26T20:48:38.456Z,55.40
2019-02-26T20:51:08.920Z,49.25
2019-02-26T20:53:39.762Z,57.43
2019-02-26T20:56:10.232Z,52.67
2019-02-26T20:58:44.657Z,55.67
2019-02-26T21:01:12.974Z,50.35
2019-02-26T21:03:43.468Z,48.50
2019-02-26T21:06:15.600Z,48.20
2019-02-26T21:08:46.287Z,51.20
2019-02-26T21:11:16.713Z,52.40
2019-02-26T21:13:47.241Z,54.60
2019-02-26T21:16:18.639Z,53.50
2019-02-26T21:18:50.082Z,51.37
2019-02-26T21:21:38.896Z,48.55
2019-02-26T21:24:11.845Z,51.30
2019-02-26T21:26:43.764Z,48.13
2019-02-26T21:29:15.722Z,44.38
2019-02-26T21:31:49.712Z,43.98
2019-02-26T21:34:21.215Z,44.65
2019-02-26T21:36:53.116Z,43.15
2019-02-26T21:39:24.995Z,45.75
2019-02-26T21:41:56.903Z,53.92
2019-02-26T21:44:28.766Z,50.17
2019-02-26T21:47:00.741Z,42.73
2019-02-26T21:49:32.680Z,52.43
2019-02-26T21:52:08.697Z,54.50
2019-02-26T21:54:40.245Z,50.17
2019-02-26T21:57:12.280Z,47.75
2019-02-26T21:59:50.032Z,46.75
2019-02-26T22:02:18.870Z,44.53
2019-02-26T22:04:49.953Z,43.05
2019-02-26T22:07:20.487Z,44.63
2019-02-26T22:09:50.903Z,41.42
2019-02-26T22:12:21.877Z,45.23
2019-02-26T22:14:54.570Z,45.20
2019-02-26T22:17:25.823Z,46.02
2019-02-26T22:19:56.419Z,51.15
2019-02-26T22:22:27.138Z,45.98
2019-02-26T22:24:57.948Z,49.53
2019-02-26T22:27:28.456Z,45.20
2019-02-26T22:29:58.913Z,44.40
2019-02-26T22:32:29.629Z,41.33
2019-02-26T22:35:00.214Z,45.08
2019-02-26T22:37:30.694Z,42.00
2019-02-26T22:40:01.236Z,49.10
2019-02-26T22:42:33.448Z,53.50
2019-02-26T22:45:04.816Z,50.58
2019-02-26T22:47:40.101Z,56.37
2019-02-26T22:50:11.295Z,51.90
2019-02-26T22:52:42.026Z,44.05
2019-02-26T22:55:17.299Z,47.00
2019-02-26T22:57:48.167Z,48.83
2019-02-26T23:00:49.663Z,44.53
2019-02-26T23:03:21.753Z,42.67
2019-02-26T23:05:52.272Z,42.20
2019-02-26T23:08:22.964Z,44.67
2019-02-26T23:10:56.843Z,43.28
2019-02-26T23:13:25.814Z,43.27
2019-02-26T23:15:56.387Z,43.03
2019-02-26T23:18:28.443Z,45.70
2019-02-26T23:20:59.145Z,42.40
2019-02-26T23:23:29.673Z,44.60
2019-02-26T23:26:01.163Z,44.37
2019-02-26T23:28:31.833Z,44.93
2019-02-26T23:31:02.418Z,48.93
2019-02-26T23:33:32.876Z,44.03
2019-02-26T23:36:03.512Z,43.93
2019-02-26T23:38:34.055Z,46.55
2019-02-26T23:41:04.632Z,45.23
2019-02-26T23:43:35.152Z,44.23
2019-02-26T23:46:05.646Z,39.20
2019-02-26T23:48:36.173Z,44.90
2019-02-26T23:51:06.681Z,46.27
2019-02-26T23:53:38.320Z,39.77
2019-02-26T23:56:08.829Z,40.23
2019-02-26T23:58:39.292Z,37.00
